Time;durP1;ratioP1;P1;durP2;ratioP2;P2;SDS_P1;SDS_P2;PMS_P1;PMS_P2;Temp;Humidity;BMP_temperature;BMP_pressure;BME280_temperature;BME280_humidity;BME280_pressure;Samples;Min_cycle;Max_cycle;Signal;HPM_P1;HPM_P2
2022/09/14 00:01:00;;;;;;;11.77;11.17;;;21.40;29.10;;;;;;5016284;28;20531;-46
2022/09/14 00:03:25;;;;;;;11.60;10.73;;;21.40;29.30;;;;;;5034276;28;20515;-44
2022/09/14 00:05:51;;;;;;;10.97;10.47;;;21.40;29.50;;;;;;5016429;28;20185;-47
2022/09/14 00:08:17;;;;;;;11.37;10.87;;;21.40;29.30;;;;;;5016428;28;20180;-43
2022/09/14 00:10:44;;;;;;;11.33;10.73;;;21.40;29.20;;;;;;5016319;28;20291;-41
2022/09/14 00:13:12;;;;;;;11.70;11.10;;;21.40;29.30;;;;;;5016371;28;20177;-48
2022/09/14 00:15:40;;;;;;;10.97;10.53;;;21.40;29.50;;;;;;5016393;28;20510;-43
2022/09/14 00:18:08;;;;;;;11.53;11.03;;;21.40;29.50;;;;;;5016130;28;20415;-41
2022/09/14 00:20:34;;;;;;;11.90;11.37;;;21.40;29.50;;;;;;5016000;28;20426;-46
2022/09/14 00:22:59;;;;;;;12.00;11.50;;;21.40;29.40;;;;;;5016190;28;20415;-41
2022/09/14 00:25:25;;;;;;;11.60;11.10;;;21.40;29.50;;;;;;5016162;28;20192;-41
2022/09/14 00:27:52;;;;;;;11.43;10.83;;;21.40;29.60;;;;;;5016142;28;20254;-48
2022/09/14 00:30:18;;;;;;;11.80;11.30;;;21.40;29.60;;;;;;5015764;28;20473;-48
2022/09/14 00:32:44;;;;;;;12.17;11.57;;;21.40;29.50;;;;;;5016143;28;20461;-42
2022/09/14 00:35:09;;;;;;;11.87;11.17;;;21.40;29.50;;;;;;5015948;28;20416;-41
2022/09/14 00:37:35;;;;;;;12.00;11.40;;;21.40;29.60;;;;;;5015906;28;20177;-42
2022/09/14 00:40:03;;;;;;;11.60;11.00;;;21.40;29.90;;;;;;5015689;28;20185;-42
2022/09/14 00:42:29;;;;;;;11.90;11.30;;;21.40;29.80;;;;;;5015773;28;20215;-41
2022/09/14 00:45:01;;;;;;;11.83;11.33;;;21.40;29.70;;;;;;5015709;28;20455;-41
2022/09/14 00:47:29;;;;;;;12.43;11.87;;;21.40;29.60;;;;;;5015764;28;20220;-48
2022/09/14 00:49:55;;;;;;;11.97;11.27;;;21.40;29.90;;;;;;5015333;28;20463;-46
2022/09/14 00:52:26;;;;;;;11.10;10.60;;;21.40;29.70;;;;;;5015709;28;20907;-46
2022/09/14 00:55:07;;;;;;;12.13;11.60;;;21.40;29.90;;;;;;5015342;28;20522;-47
2022/09/14 00:57:45;;;;;;;11.50;10.80;;;21.40;30.10;;;;;;5015630;28;20451;-53
2022/09/14 01:00:14;;;;;;;12.17;11.67;;;21.40;30.10;;;;;;5015221;28;20477;-48
2022/09/14 01:02:40;;;;;;;11.80;11.30;;;21.40;30.30;;;;;;5015478;28;20451;-49
2022/09/14 01:05:07;;;;;;;13.00;12.10;;;21.40;30.30;;;;;;5015221;28;20490;-48
2022/09/14 01:07:59;;;;;;;12.30;11.70;;;21.40;30.30;;;;;;5015489;28;20280;-50
2022/09/14 01:10:45;;;;;;;12.50;11.90;;;21.40;30.70;;;;;;5015083;28;20521;-46
2022/09/14 01:13:34;;;;;;;12.37;11.80;;;21.40;31.10;;;;;;5015332;28;20441;-46
2022/09/14 01:16:18;;;;;;;12.87;12.27;;;21.40;31.10;;;;;;5015142;28;20415;-48
2022/09/14 01:18:56;;;;;;;12.30;11.70;;;21.40;31.10;;;;;;5015390;28;20619;-45
2022/09/14 01:21:31;;;;;;;12.43;11.93;;;21.40;31.60;;;;;;5014937;28;20423;-50
2022/09/14 01:24:15;;;;;;;13.83;12.93;;;21.40;32.30;;;;;;5015060;28;20419;-44
2022/09/14 01:26:59;;;;;;;13.90;13.20;;;21.30;32.10;;;;;;5014618;28;20478;-46
2022/09/14 01:29:43;;;;;;;13.33;12.73;;;21.20;36.50;;;;;;5015078;28;20513;-43
2022/09/14 01:32:31;;;;;;;15.00;13.90;;;21.10;36.00;;;;;;5014725;28;20474;-43
2022/09/14 01:35:17;;;;;;;13.17;12.57;;;20.70;45.30;;;;;;5014874;28;20443;-41
2022/09/14 01:37:58;;;;;;;13.80;13.03;;;20.30;49.10;;;;;;5014505;28;20426;-43
2022/09/14 01:40:31;;;;;;;11.43;10.93;;;20.30;50.60;;;;;;5014767;28;20927;-43
2022/09/14 01:43:09;;;;;;;11.07;10.47;;;20.20;52.40;;;;;;5014765;28;20422;-47
2022/09/14 01:45:42;;;;;;;11.47;10.67;;;20.20;53.50;;;;;;5015091;28;20426;-46
2022/09/14 01:48:10;;;;;;;11.30;10.60;;;20.00;56.00;;;;;;5014774;28;20416;-44
2022/09/14 01:50:49;;;;;;;10.30;9.90;;;19.90;56.60;;;;;;5014624;28;20463;-41
2022/09/14 01:53:21;;;;;;;10.83;9.90;;;19.80;59.40;;;;;;5014590;28;20473;-41
2022/09/14 01:56:00;;;;;;;10.30;9.37;;;19.80;60.60;;;;;;5014344;28;20424;-41
2022/09/14 01:58:34;;;;;;;10.10;9.30;;;19.70;61.30;;;;;;5014799;28;20419;-41
2022/09/14 02:01:03;;;;;;;9.13;8.43;;;19.70;63.00;;;;;;5014041;28;20793;-41
2022/09/14 02:03:36;;;;;;;9.13;8.17;;;19.60;64.00;;;;;;5014019;28;20434;-41
2022/09/14 02:06:06;;;;;;;8.83;8.43;;;19.60;64.30;;;;;;5014526;28;20526;-41
2022/09/14 02:08:33;;;;;;;10.73;9.87;;;19.70;64.60;;;;;;5014488;28;20477;-41
2022/09/14 02:10:59;;;;;;;8.00;7.60;;;19.70;64.70;;;;;;5014159;28;20471;-42
2022/09/14 02:13:25;;;;;;;8.50;8.20;;;19.80;64.50;;;;;;5014378;28;20419;-42
2022/09/14 02:15:51;;;;;;;9.00;8.50;;;19.80;63.00;;;;;;5013763;28;20419;-48
2022/09/14 02:18:18;;;;;;;9.63;9.23;;;19.70;63.50;;;;;;5014357;28;20422;-42
2022/09/14 02:21:04;;;;;;;10.07;9.57;;;19.70;62.50;;;;;;5014238;28;20596;-41
2022/09/14 02:23:29;;;;;;;9.30;8.80;;;19.70;62.70;;;;;;5014533;28;20422;-44
2022/09/14 02:25:56;;;;;;;9.63;9.03;;;19.80;62.60;;;;;;5014204;28;20447;-49
2022/09/14 02:28:22;;;;;;;10.33;9.83;;;19.90;62.20;;;;;;5014312;28;20250;-47
2022/09/14 02:31:06;;;;;;;9.27;8.83;;;20.00;61.90;;;;;;5014015;28;20877;-51
2022/09/14 02:33:52;;;;;;;11.13;10.33;;;20.00;60.80;;;;;;5014105;28;20268;-48
2022/09/14 02:36:35;;;;;;;11.27;10.57;;;19.90;59.40;;;;;;5014190;28;20447;-50
2022/09/14 02:39:26;;;;;;;10.80;10.17;;;20.00;60.20;;;;;;5014255;28;20434;-50
2022/09/14 02:42:15;;;;;;;10.73;10.27;;;20.00;60.20;;;;;;4977307;28;20432;-48
2022/09/14 02:45:10;;;;;;;10.90;10.40;;;20.10;60.20;;;;;;5014126;28;20790;-50
2022/09/14 02:47:54;;;;;;;11.97;11.27;;;20.00;59.00;;;;;;5014055;28;20415;-46
2022/09/14 02:50:30;;;;;;;10.77;10.37;;;19.90;60.10;;;;;;5013835;28;20549;-47
2022/09/14 02:53:08;;;;;;;10.63;10.23;;;19.90;60.10;;;;;;5014024;28;20988;-46
2022/09/14 02:55:39;;;;;;;11.97;11.17;;;19.90;59.40;;;;;;5014131;28;20411;-45
2022/09/14 02:58:07;;;;;;;11.03;10.63;;;19.80;60.00;;;;;;5014075;28;20415;-46
2022/09/14 03:00:36;;;;;;;12.23;11.53;;;19.90;60.10;;;;;;5013575;28;20443;-49
2022/09/14 03:03:04;;;;;;;12.53;11.93;;;19.90;59.70;;;;;;5031552;28;20423;-46
2022/09/14 03:05:31;;;;;;;11.20;10.70;;;20.00;58.50;;;;;;5013989;28;20423;-46
2022/09/14 03:07:57;;;;;;;11.90;11.20;;;20.00;58.30;;;;;;5013808;28;20477;-46
2022/09/14 03:10:23;;;;;;;12.33;11.67;;;20.10;58.50;;;;;;5013660;28;20466;-48
2022/09/14 03:12:49;;;;;;;11.93;11.43;;;20.10;57.70;;;;;;5013832;28;20911;-47
2022/09/14 03:15:15;;;;;;;12.80;12.23;;;20.00;57.50;;;;;;5015750;28;20188;-44
2022/09/14 03:17:45;;;;;;;11.97;11.50;;;20.00;57.80;;;;;;5017489;28;20664;-41
2022/09/14 03:20:10;;;;;;;11.93;11.53;;;20.00;58.10;;;;;;5017049;28;20513;-41
2022/09/14 03:22:36;;;;;;;12.53;11.93;;;20.00;57.50;;;;;;5017479;28;20870;-43
2022/09/14 03:25:02;;;;;;;13.10;12.57;;;20.00;58.50;;;;;;5017064;28;20283;-41
2022/09/14 03:27:27;;;;;;;12.90;11.90;;;20.00;58.90;;;;;;5017471;28;20191;-46
2022/09/14 03:29:53;;;;;;;11.80;11.30;;;20.00;59.40;;;;;;5016904;28;20669;-48
2022/09/14 03:32:18;;;;;;;11.60;11.10;;;20.00;60.20;;;;;;5017334;28;20176;-49
2022/09/14 03:34:44;;;;;;;11.60;11.10;;;19.80;61.70;;;;;;5017257;28;20645;-45
2022/09/14 03:37:10;;;;;;;12.53;11.83;;;19.80;63.10;;;;;;5017090;28;20238;-43
2022/09/14 03:39:36;;;;;;;10.80;10.40;;;19.80;62.50;;;;;;5017102;28;20184;-42
2022/09/14 03:42:02;;;;;;;10.90;10.50;;;19.90;62.30;;;;;;5016654;28;20649;-43
2022/09/14 03:44:27;;;;;;;11.60;11.10;;;19.90;61.50;;;;;;5016924;28;20830;-47
2022/09/14 03:46:53;;;;;;;12.00;11.50;;;19.90;61.20;;;;;;5016440;28;20181;-42
2022/09/14 03:49:18;;;;;;;11.10;10.70;;;20.00;61.20;;;;;;5016623;28;20219;-42
2022/09/14 03:51:44;;;;;;;12.70;12.03;;;20.00;60.90;;;;;;5016578;28;20180;-47
2022/09/14 03:54:09;;;;;;;11.90;11.40;;;20.00;60.60;;;;;;5016488;28;20181;-43
2022/09/14 03:56:35;;;;;;;12.00;11.37;;;20.10;60.30;;;;;;5016757;28;20184;-47
2022/09/14 03:59:01;;;;;;;11.97;11.33;;;20.10;60.30;;;;;;5016432;28;20219;-44
2022/09/14 04:01:27;;;;;;;12.00;11.30;;;20.10;60.30;;;;;;5016469;28;20732;-44
2022/09/14 04:03:52;;;;;;;12.90;12.20;;;20.10;60.30;;;;;;5016457;28;20180;-46
2022/09/14 04:06:18;;;;;;;12.40;11.77;;;20.10;60.50;;;;;;5016413;28;20235;-46
2022/09/14 04:08:45;;;;;;;13.10;12.17;;;20.10;60.30;;;;;;5016539;28;20184;-49
2022/09/14 04:11:18;;;;;;;13.13;12.33;;;20.10;60.60;;;;;;5016176;28;20554;-48
2022/09/14 04:13:45;;;;;;;12.60;12.00;;;20.00;60.00;;;;;;5016359;28;20471;-48
2022/09/14 04:16:11;;;;;;;13.80;12.77;;;20.00;60.20;;;;;;5034104;28;20411;-48
2022/09/14 04:18:36;;;;;;;12.37;11.87;;;20.00;60.20;;;;;;5016449;28;20431;-50
2022/09/14 04:21:08;;;;;;;12.20;11.70;;;20.00;60.20;;;;;;5016031;28;20928;-47
2022/09/14 04:23:34;;;;;;;13.10;12.27;;;20.00;60.20;;;;;;5016336;28;20370;-48
2022/09/14 04:25:59;;;;;;;12.20;11.70;;;20.00;60.70;;;;;;5015594;28;20471;-48
2022/09/14 04:28:26;;;;;;;13.10;12.60;;;19.90;60.10;;;;;;5016126;28;20466;-46
2022/09/14 04:30:58;;;;;;;12.03;11.53;;;19.90;60.10;;;;;;5015455;28;20290;-46
2022/09/14 04:33:25;;;;;;;12.67;12.00;;;20.00;61.00;;;;;;5016034;28;20470;-47
2022/09/14 04:36:00;;;;;;;12.80;12.30;;;20.00;61.20;;;;;;5016119;28;20420;-48
2022/09/14 04:38:27;;;;;;;13.10;12.50;;;19.90;60.60;;;;;;5015845;28;20415;-45
2022/09/14 04:40:52;;;;;;;12.70;12.20;;;19.80;61.00;;;;;;5015463;28;20431;-45
2022/09/14 04:43:18;;;;;;;12.33;11.57;;;19.70;61.10;;;;;;5015744;28;20802;-50
2022/09/14 04:45:44;;;;;;;13.47;12.67;;;19.60;62.20;;;;;;5015754;28;20540;-50
2022/09/14 04:48:10;;;;;;;11.20;10.60;;;19.60;63.10;;;;;;5015411;28;20190;-51
2022/09/14 04:50:36;;;;;;;11.80;11.20;;;19.60;64.10;;;;;;5015269;28;20463;-46
2022/09/14 04:53:01;;;;;;;11.60;11.00;;;19.60;65.00;;;;;;5015601;28;20411;-46
2022/09/14 04:55:28;;;;;;;11.07;10.20;;;19.70;64.80;;;;;;5015418;28;20177;-47
2022/09/14 04:57:53;;;;;;;12.27;11.57;;;19.70;64.30;;;;;;5015599;28;20469;-48
2022/09/14 05:00:19;;;;;;;12.43;11.93;;;19.80;63.60;;;;;;5033274;28;20411;-52
2022/09/14 05:02:45;;;;;;;11.67;11.07;;;19.70;63.50;;;;;;5015325;28;20196;-52
2022/09/14 05:05:11;;;;;;;11.00;10.50;;;19.60;64.20;;;;;;5015298;28;20427;-47
2022/09/14 05:07:37;;;;;;;11.80;11.00;;;19.50;64.80;;;;;;5015186;28;20180;-48
2022/09/14 05:10:03;;;;;;;11.77;10.80;;;19.50;64.50;;;;;;5014905;28;20301;-46
2022/09/14 05:12:29;;;;;;;11.03;10.53;;;19.50;65.30;;;;;;5015369;28;20177;-46
2022/09/14 05:14:54;;;;;;;10.83;10.40;;;19.50;65.70;;;;;;5015086;28;20443;-42
2022/09/14 05:17:20;;;;;;;11.17;10.47;;;19.50;66.50;;;;;;5015198;28;20895;-42
2022/09/14 05:19:45;;;;;;;11.50;10.90;;;19.60;66.30;;;;;;5015165;28;20185;-42
2022/09/14 05:22:11;;;;;;;11.00;10.50;;;19.70;65.20;;;;;;5014939;28;20188;-41
2022/09/14 05:24:37;;;;;;;11.17;10.60;;;19.70;65.20;;;;;;5014945;28;20586;-41
2022/09/14 05:27:03;;;;;;;11.37;10.67;;;19.70;65.00;;;;;;5014727;28;20189;-42
2022/09/14 05:29:28;;;;;;;11.10;10.47;;;19.80;64.40;;;;;;5014774;28;20259;-43
2022/09/14 05:31:54;;;;;;;10.83;10.27;;;19.80;63.90;;;;;;5014900;28;20183;-42
2022/09/14 05:34:20;;;;;;;12.83;12.10;;;19.90;63.50;;;;;;5015140;28;20180;-42
2022/09/14 05:36:45;;;;;;;11.80;11.20;;;20.00;62.80;;;;;;5014375;28;20180;-42
2022/09/14 05:39:11;;;;;;;12.67;11.73;;;20.00;61.90;;;;;;5014670;28;20173;-44
2022/09/14 05:41:37;;;;;;;11.83;11.27;;;20.00;61.70;;;;;;5014682;28;20479;-42
2022/09/14 05:44:03;;;;;;;12.43;11.83;;;20.00;61.70;;;;;;5014632;28;20218;-41
2022/09/14 05:46:29;;;;;;;12.73;11.83;;;19.90;61.80;;;;;;5014912;28;20457;-42
2022/09/14 05:48:55;;;;;;;12.37;11.77;;;19.90;61.70;;;;;;5014505;28;20424;-42
2022/09/14 05:51:23;;;;;;;12.03;11.30;;;20.00;62.00;;;;;;5014295;28;20212;-42
2022/09/14 05:53:50;;;;;;;12.03;11.40;;;19.90;61.10;;;;;;5014691;28;20181;-41
2022/09/14 05:56:17;;;;;;;12.43;11.83;;;19.90;61.20;;;;;;5032259;28;20423;-43
2022/09/14 05:58:43;;;;;;;13.07;12.27;;;19.90;61.50;;;;;;5014327;28;20411;-41
2022/09/14 06:01:13;;;;;;;13.77;12.90;;;19.90;61.90;;;;;;5014093;28;20426;-45
2022/09/14 06:03:39;;;;;;;12.07;11.47;;;19.90;61.90;;;;;;5014581;28;20845;-45
2022/09/14 06:06:07;;;;;;;13.37;12.63;;;20.00;62.00;;;;;;5014336;28;20426;-45
2022/09/14 06:08:33;;;;;;;13.57;12.87;;;20.00;61.70;;;;;;5014491;28;20416;-44
2022/09/14 06:11:30;;;;;;;12.93;12.30;;;20.00;61.40;;;;;;5014098;28;20497;-48
2022/09/14 06:13:56;;;;;;;12.20;11.70;;;20.00;61.50;;;;;;5015841;28;20430;-49
2022/09/14 06:16:23;;;;;;;13.70;12.57;;;20.00;61.60;;;;;;5014379;28;20419;-52
2022/09/14 06:18:49;;;;;;;13.50;12.83;;;20.00;62.50;;;;;;5014348;28;20185;-51
2022/09/14 06:21:18;;;;;;;12.77;11.90;;;20.00;63.80;;;;;;5014033;28;20476;-49
2022/09/14 06:23:44;;;;;;;12.77;12.00;;;20.00;63.80;;;;;;5014165;28;20451;-49
2022/09/14 06:26:10;;;;;;;12.67;11.77;;;20.10;63.80;;;;;;5014319;28;20439;-47
2022/09/14 06:28:36;;;;;;;13.53;12.53;;;20.10;63.90;;;;;;5014157;28;20908;-47
2022/09/14 06:31:03;;;;;;;14.30;12.93;;;20.10;63.20;;;;;;5014038;28;20469;-48
2022/09/14 06:33:30;;;;;;;13.13;12.43;;;20.20;63.00;;;;;;5014405;28;20199;-48
2022/09/14 06:35:57;;;;;;;13.40;12.70;;;20.20;62.70;;;;;;5014236;28;20422;-48
2022/09/14 06:38:24;;;;;;;13.40;12.87;;;20.20;62.80;;;;;;5014152;28;20419;-53
2022/09/14 06:40:55;;;;;;;12.53;11.93;;;20.20;63.30;;;;;;5013981;28;20427;-48
2022/09/14 06:43:22;;;;;;;12.30;11.67;;;20.30;63.90;;;;;;5014188;28;20420;-51
2022/09/14 06:46:02;;;;;;;11.70;10.83;;;20.20;65.70;;;;;;5014116;28;20422;-48
2022/09/14 06:48:30;;;;;;;13.10;12.40;;;20.30;66.10;;;;;;5015060;28;20438;-47
2022/09/14 06:50:56;;;;;;;10.63;10.03;;;20.30;66.00;;;;;;5017710;28;21024;-46
2022/09/14 06:53:22;;;;;;;11.73;11.10;;;20.30;66.50;;;;;;5017788;28;20415;-46
2022/09/14 06:55:48;;;;;;;11.70;11.00;;;20.40;65.70;;;;;;5017791;28;20431;-45
2022/09/14 06:58:14;;;;;;;11.00;10.40;;;20.50;66.10;;;;;;5017763;28;20415;-46
2022/09/14 07:00:39;;;;;;;10.77;10.23;;;20.50;66.50;;;;;;5017672;28;20699;-51
2022/09/14 07:03:05;;;;;;;11.40;10.77;;;20.50;66.80;;;;;;5017736;28;20176;-49
2022/09/14 07:05:31;;;;;;;11.40;10.70;;;20.50;67.10;;;;;;5017722;28;20188;-46
2022/09/14 07:07:57;;;;;;;11.30;10.47;;;20.60;68.10;;;;;;5017573;28;20610;-47
2022/09/14 07:10:26;;;;;;;11.00;10.23;;;20.60;67.30;;;;;;5017270;28;20577;-47
2022/09/14 07:12:53;;;;;;;12.40;11.70;;;20.60;67.30;;;;;;5017593;28;20173;-51
2022/09/14 07:15:20;;;;;;;11.60;10.63;;;20.70;66.20;;;;;;5017446;28;20431;-46
2022/09/14 07:17:46;;;;;;;11.80;11.20;;;20.70;65.00;;;;;;5017401;28;20415;-42
2022/09/14 07:20:12;;;;;;;11.63;11.03;;;20.80;64.00;;;;;;5017206;28;20423;-44
2022/09/14 07:22:38;;;;;;;11.50;10.90;;;20.80;64.60;;;;;;5017429;28;20419;-42
2022/09/14 07:25:04;;;;;;;10.90;10.17;;;20.90;64.30;;;;;;5017276;28;20443;-42
2022/09/14 07:27:29;;;;;;;11.50;10.80;;;20.90;63.00;;;;;;5017314;28;20181;-43
2022/09/14 07:29:55;;;;;;;10.73;10.23;;;21.00;62.60;;;;;;5017033;28;20902;-43
2022/09/14 07:32:21;;;;;;;11.43;10.40;;;21.00;62.50;;;;;;5017186;28;20184;-43
2022/09/14 07:34:46;;;;;;;10.63;10.03;;;21.10;62.50;;;;;;5017255;28;20181;-41
2022/09/14 07:37:12;;;;;;;12.20;11.50;;;21.10;61.30;;;;;;5017059;28;20543;-41
2022/09/14 07:39:37;;;;;;;11.03;10.40;;;21.20;61.30;;;;;;5017110;28;20390;-41
2022/09/14 07:42:03;;;;;;;12.10;11.00;;;21.20;60.80;;;;;;5016535;28;20191;-40
2022/09/14 07:44:29;;;;;;;11.20;10.60;;;21.30;61.50;;;;;;5017006;28;20211;-49
2022/09/14 07:46:54;;;;;;;12.70;11.90;;;21.30;61.50;;;;;;5017031;28;20181;-49
2022/09/14 07:49:21;;;;;;;11.33;10.73;;;21.40;61.60;;;;;;5016239;28;20211;-48
2022/09/14 07:51:47;;;;;;;11.93;11.33;;;21.40;60.20;;;;;;5016736;28;20260;-46
2022/09/14 07:54:15;;;;;;;11.83;11.23;;;21.40;59.90;;;;;;5016593;28;20838;-47
2022/09/14 07:56:42;;;;;;;12.13;11.40;;;21.40;59.70;;;;;;5016765;28;20423;-45
2022/09/14 07:59:12;;;;;;;11.77;11.00;;;21.50;59.90;;;;;;5016557;28;20449;-50
2022/09/14 08:01:38;;;;;;;13.13;12.03;;;21.60;59.20;;;;;;5033605;28;20589;-48
2022/09/14 08:04:04;;;;;;;11.97;11.27;;;21.60;59.10;;;;;;5016476;28;20495;-47
2022/09/14 08:06:30;;;;;;;12.47;11.43;;;21.70;58.20;;;;;;5016256;28;20840;-50
2022/09/14 08:08:56;;;;;;;12.03;10.80;;;21.80;57.60;;;;;;5016513;28;20945;-47
2022/09/14 08:11:23;;;;;;;10.53;9.93;;;21.80;57.50;;;;;;5016100;28;20491;-47
2022/09/14 08:13:51;;;;;;;10.97;10.40;;;21.90;57.10;;;;;;5016459;28;20415;-47
2022/09/14 08:16:18;;;;;;;10.77;10.27;;;22.00;56.00;;;;;;5016332;28;20427;-46
2022/09/14 08:18:44;;;;;;;10.97;10.47;;;22.00;55.50;;;;;;5016506;28;20419;-45
2022/09/14 08:21:16;;;;;;;11.10;10.57;;;22.10;55.70;;;;;;5015951;28;20763;-47
2022/09/14 08:23:42;;;;;;;11.60;11.00;;;22.10;56.30;;;;;;5016184;28;20422;-46
2022/09/14 08:26:13;;;;;;;11.17;10.67;;;22.10;55.40;;;;;;5015961;28;20462;-46
2022/09/14 08:28:40;;;;;;;11.13;10.60;;;22.20;55.20;;;;;;5016188;28;20420;-49
2022/09/14 08:31:11;;;;;;;11.90;11.07;;;22.30;54.40;;;;;;5015841;28;20470;-45
2022/09/14 08:33:43;;;;;;;11.50;10.90;;;22.40;54.00;;;;;;5016106;28;20416;-45
2022/09/14 08:36:10;;;;;;;11.60;11.00;;;22.40;52.50;;;;;;5016048;28;20444;-45
2022/09/14 08:38:36;;;;;;;11.80;11.20;;;22.50;52.60;;;;;;5015913;28;20837;-47
2022/09/14 08:41:10;;;;;;;12.40;11.60;;;22.60;51.90;;;;;;5015747;28;20423;-46
2022/09/14 08:43:38;;;;;;;13.23;12.00;;;22.70;51.00;;;;;;5016044;28;20180;-43
2022/09/14 08:46:08;;;;;;;12.03;11.53;;;22.70;50.70;;;;;;5015841;28;20838;-46
2022/09/14 08:48:39;;;;;;;11.97;11.47;;;22.80;50.90;;;;;;5015798;28;20478;-44
2022/09/14 08:51:05;;;;;;;11.87;11.37;;;22.80;50.20;;;;;;5015589;28;20578;-44
2022/09/14 08:53:36;;;;;;;12.50;11.57;;;22.80;50.20;;;;;;5015762;28;20438;-42
2022/09/14 08:56:15;;;;;;;11.10;10.60;;;22.90;50.80;;;;;;5015711;28;20797;-42
2022/09/14 08:59:15;;;;;;;11.57;10.87;;;23.00;50.60;;;;;;5015676;28;20415;-47
2022/09/14 09:02:19;;;;;;;11.43;10.90;;;23.00;49.50;;;;;;5015381;28;20786;-42
2022/09/14 09:05:13;;;;;;;12.67;11.90;;;23.20;49.60;;;;;;5015659;28;20427;-40
2022/09/14 09:08:12;;;;;;;12.20;11.70;;;23.30;47.90;;;;;;5014742;28;20482;-41
2022/09/14 09:10:39;;;;;;;12.60;12.00;;;23.50;46.00;;;;;;5014622;28;20471;-41
2022/09/14 09:13:08;;;;;;;12.80;12.10;;;23.70;45.10;;;;;;5015331;28;20426;-40
2022/09/14 09:15:50;;;;;;;13.87;13.17;;;23.80;44.10;;;;;;5015440;28;20415;-40
2022/09/14 09:18:34;;;;;;;13.10;12.60;;;23.90;42.30;;;;;;5015199;28;20418;-41
2022/09/14 09:21:06;;;;;;;14.00;13.20;;;24.10;41.90;;;;;;5014936;28;20411;-41
2022/09/14 09:23:33;;;;;;;14.07;13.40;;;24.20;40.20;;;;;;5015052;28;20512;-43
2022/09/14 09:26:08;;;;;;;13.27;12.70;;;24.30;40.70;;;;;;5014980;28;20865;-45
2022/09/14 09:28:56;;;;;;;13.70;13.20;;;24.50;40.40;;;;;;5015265;28;20446;-40
2022/09/14 09:31:46;;;;;;;13.50;12.70;;;24.60;39.20;;;;;;5015069;28;20502;-40
2022/09/14 09:34:14;;;;;;;14.00;13.20;;;24.80;39.20;;;;;;5015002;28;20919;-44
2022/09/14 09:36:46;;;;;;;13.93;13.43;;;24.90;37.60;;;;;;5014882;28;20411;-43
2022/09/14 09:39:13;;;;;;;13.63;13.10;;;25.00;37.20;;;;;;5014967;28;20423;-46
2022/09/14 09:41:54;;;;;;;14.03;13.53;;;25.10;36.60;;;;;;5014643;28;20931;-41
2022/09/14 09:44:20;;;;;;;14.87;14.17;;;25.00;36.40;;;;;;5014909;28;20458;-43
2022/09/14 09:46:53;;;;;;;14.33;13.53;;;25.10;35.80;;;;;;5014824;28;20499;-42
2022/09/14 09:49:20;;;;;;;14.20;13.60;;;25.20;35.40;;;;;;5014784;28;20181;-43
2022/09/14 09:51:47;;;;;;;13.27;12.77;;;25.20;35.20;;;;;;5014628;28;20418;-42
2022/09/14 09:54:12;;;;;;;14.00;13.30;;;25.30;34.40;;;;;;5014595;28;20487;-45
2022/09/14 09:57:01;;;;;;;14.13;13.60;;;25.40;34.50;;;;;;5014690;28;20451;-42
2022/09/14 09:59:36;;;;;;;13.73;13.23;;;25.50;34.50;;;;;;5014840;28;20192;-43
2022/09/14 10:02:31;;;;;;;14.03;13.37;;;25.50;33.40;;;;;;5014339;28;20950;-43
2022/09/14 10:05:05;;;;;;;14.70;14.10;;;25.50;33.00;;;;;;4997666;28;20423;-44
2022/09/14 10:07:38;;;;;;;14.67;14.10;;;25.50;32.50;;;;;;5032334;28;20870;-42
2022/09/14 10:10:07;;;;;;;14.13;13.43;;;25.50;33.20;;;;;;5031974;28;20466;-46
2022/09/14 10:12:35;;;;;;;14.00;13.50;;;25.50;33.00;;;;;;5014634;28;20786;-41
2022/09/14 10:15:14;;;;;;;14.03;13.23;;;25.50;32.90;;;;;;5014412;28;20462;-41
2022/09/14 10:17:40;;;;;;;14.57;13.87;;;25.50;33.00;;;;;;5014536;28;20923;-43
2022/09/14 10:20:19;;;;;;;13.27;12.67;;;25.50;33.00;;;;;;5014144;28;20429;-47
2022/09/14 10:22:45;;;;;;;13.80;13.10;;;25.50;32.60;;;;;;5014138;28;20558;-41
2022/09/14 10:25:13;;;;;;;14.57;13.87;;;25.30;33.40;;;;;;5013979;28;20519;-41
2022/09/14 10:27:51;;;;;;;14.77;14.03;;;25.30;33.10;;;;;;5014582;28;20566;-43
2022/09/14 10:30:22;;;;;;;13.90;12.87;;;25.20;33.50;;;;;;5014183;28;20463;-42
2022/09/14 10:33:05;;;;;;;15.40;14.17;;;25.20;33.50;;;;;;5014219;28;20508;-42
2022/09/14 10:35:42;;;;;;;15.00;14.20;;;25.20;33.50;;;;;;5032045;28;20502;-44
2022/09/14 10:38:27;;;;;;;14.93;14.23;;;25.20;34.10;;;;;;5014329;28;20415;-43
2022/09/14 10:41:09;;;;;;;15.03;14.40;;;25.10;33.10;;;;;;5014024;28;20481;-40
2022/09/14 10:43:34;;;;;;;14.93;14.33;;;25.10;32.60;;;;;;5014285;28;20484;-44
2022/09/14 10:46:02;;;;;;;14.77;14.17;;;25.10;32.40;;;;;;5014009;28;20415;-46
2022/09/14 10:48:48;;;;;;;15.37;14.67;;;25.10;32.20;;;;;;5014056;28;20191;-43
2022/09/14 10:51:36;;;;;;;14.30;13.70;;;25.00;33.40;;;;;;5013713;28;20549;-46
2022/09/14 10:54:25;;;;;;;14.27;13.57;;;25.00;33.40;;;;;;5013988;28;20447;-41
2022/09/14 10:57:12;;;;;;;16.20;15.23;;;25.00;33.00;;;;;;5014096;28;20930;-45
2022/09/14 10:59:44;;;;;;;14.53;13.83;;;25.10;31.70;;;;;;5014092;28;20425;-44
2022/09/14 11:02:36;;;;;;;15.20;14.60;;;25.10;30.70;;;;;;5013754;28;20509;-43
2022/09/14 11:05:28;;;;;;;14.20;13.70;;;25.10;31.10;;;;;;5013899;28;20429;-42
2022/09/14 11:08:09;;;;;;;14.40;13.80;;;25.10;31.50;;;;;;5013916;28;20415;-44
2022/09/14 11:11:25;;;;;;;13.73;13.30;;;25.20;31.50;;;;;;5013824;28;20484;-40
2022/09/14 11:14:17;;;;;;;14.70;14.10;;;25.20;30.70;;;;;;4980875;28;20423;-42
2022/09/14 11:17:06;;;;;;;15.50;14.70;;;25.20;31.00;;;;;;5013813;28;20777;-44
2022/09/14 11:20:15;;;;;;;14.27;13.67;;;25.20;31.50;;;;;;5013278;28;20459;-44
2022/09/14 11:22:49;;;;;;;14.83;14.13;;;25.30;31.80;;;;;;5000188;28;20427;-40
2022/09/14 11:25:22;;;;;;;14.23;13.60;;;25.30;31.80;;;;;;5013707;28;20454;-42
2022/09/14 11:27:57;;;;;;;14.03;13.53;;;25.40;30.40;;;;;;5013769;28;20423;-45
2022/09/14 11:30:46;;;;;;;14.10;13.50;;;25.50;30.50;;;;;;5013462;28;20537;-46
2022/09/14 11:33:17;;;;;;;13.80;13.30;;;25.50;29.60;;;;;;5012758;28;20438;-46
2022/09/14 11:35:51;;;;;;;14.20;13.50;;;25.50;29.50;;;;;;5014882;28;20463;-43
2022/09/14 11:38:27;;;;;;;13.93;13.43;;;25.60;29.80;;;;;;5017090;28;20411;-41
2022/09/14 11:41:12;;;;;;;14.73;13.93;;;25.60;28.90;;;;;;5034554;28;20411;-48
2022/09/14 11:43:37;;;;;;;14.27;13.40;;;25.80;29.20;;;;;;5017007;28;20411;-41
2022/09/14 11:46:08;;;;;;;13.37;12.77;;;25.90;28.40;;;;;;5016870;28;20438;-46
2022/09/14 11:48:49;;;;;;;14.20;13.70;;;25.90;28.40;;;;;;5017014;28;20187;-42
2022/09/14 11:51:21;;;;;;;14.07;13.57;;;25.90;28.50;;;;;;5016435;28;20467;-41
2022/09/14 11:53:48;;;;;;;14.20;13.63;;;26.10;27.40;;;;;;5016804;28;20915;-40
2022/09/14 11:56:30;;;;;;;14.13;13.43;;;26.10;27.70;;;;;;5016793;28;20554;-44
2022/09/14 11:59:05;;;;;;;13.90;13.40;;;26.20;27.10;;;;;;5016676;28;20899;-41
2022/09/14 12:01:31;;;;;;;13.80;13.10;;;26.20;26.30;;;;;;5016505;28;20697;-43
2022/09/14 12:03:58;;;;;;;14.63;13.93;;;26.20;26.30;;;;;;5016465;28;20556;-41
2022/09/14 12:06:44;;;;;;;14.50;14.00;;;26.10;26.80;;;;;;5016525;28;20196;-45
2022/09/14 12:09:16;;;;;;;14.63;13.97;;;26.10;26.90;;;;;;5015958;28;20432;-42
2022/09/14 12:11:43;;;;;;;13.90;13.40;;;26.00;27.00;;;;;;5016324;28;20419;-46
2022/09/14 12:14:27;;;;;;;14.23;13.73;;;25.90;27.60;;;;;;5016364;28;20854;-46
2022/09/14 12:17:14;;;;;;;15.03;14.20;;;25.90;27.80;;;;;;5016355;28;20773;-47
2022/09/14 12:19:41;;;;;;;15.33;14.57;;;25.80;28.60;;;;;;5016278;28;20427;-42
2022/09/14 12:22:30;;;;;;;13.90;13.40;;;25.80;28.30;;;;;;5016020;28;20419;-44
2022/09/14 12:25:07;;;;;;;13.43;12.73;;;25.80;28.10;;;;;;5016013;28;20435;-44
2022/09/14 12:27:36;;;;;;;13.33;12.83;;;25.70;28.00;;;;;;5016117;28;20509;-44
2022/09/14 12:30:34;;;;;;;12.67;12.17;;;25.60;28.30;;;;;;5015644;28;20970;-45
2022/09/14 12:33:01;;;;;;;14.60;13.90;;;25.60;29.20;;;;;;4982833;28;20845;-43
2022/09/14 12:35:33;;;;;;;14.17;13.57;;;25.50;28.50;;;;;;5015947;28;20447;-44
2022/09/14 12:38:18;;;;;;;14.67;13.77;;;25.50;29.10;;;;;;5015834;28;20514;-42
2022/09/14 12:40:44;;;;;;;14.30;13.70;;;25.50;30.20;;;;;;5015450;28;20450;-44
2022/09/14 12:43:33;;;;;;;15.43;14.50;;;25.40;31.70;;;;;;5015617;28;20415;-46
2022/09/14 12:46:04;;;;;;;15.03;13.80;;;25.20;35.50;;;;;;5003508;28;20638;-47
2022/09/14 12:51:35;;;;;;;12.97;12.30;;;24.80;38.10;;;;;;5033170;28;20463;-44
2022/09/14 12:54:07;;;;;;;13.50;12.70;;;24.50;40.60;;;;;;5015722;28;20932;-42